KANK

Details ICAO KANK
Name HARRIET ALEXANDER FLD
Region United States
Timezone America/Denver (UTC-7.0)
Plans Departing 4
Arriving 5
Stats Elevation 7,523 ft / 2,293 m (AMSL)
Location 38.538285° -106.048628°
Runways 1
Magnetic Variation 8.635° E
Sunrise 2017-12-13 14:14:48 UTC / 2017-12-13 07:14:48 Local
Sunset 2017-12-13 23:45:06 UTC / 2017-12-13 16:45:06 Local
Advertisement - Login to hide

Runways

ID Width Length Bearing (true) Bearing (mag) Surface Threshold Offset Overrun Length
06 75 ft / 23 m 7,333 ft / 2,235 m 70.57° 61.94° Asphalt 0 ft / 0 m 0 ft / 0 m
24 75 ft / 23 m 7,333 ft / 2,235 m 250.59° 241.96° Asphalt 0 ft / 0 m 0 ft / 0 m

Map

Weather


0- 5 10 15 20 25 30 35+ Temperature / ° C

Clouds and Precipitation
Forecast for 2017-12-13 18:00 UTC. Updated an hour ago

Ground ~20,000 ft ~40,000 ft Winds

METAR

KANK 131435Z AUTO 31005KT 10SM CLR M01/M14 A3031 RMK AO1 T10131138

TAF

Not found

Frequencies

Recorded 133.85 MHz AWOS 3
Unicom 122.70 MHz CTAF/UNICOM
Warning: Do not use this data for real-world aviation or navigation. No guarantee of current accuracy is given.